createdAt,value
2018-12-11T00:00:33.547Z,97431.34
2018-12-11T00:03:02.222Z,97432.64
2018-12-11T00:05:31.367Z,97431.31
2018-12-11T00:08:00.237Z,97431.66
2018-12-11T00:10:29.111Z,97438.65
2018-12-11T00:12:58.113Z,97433.95
2018-12-11T00:15:27.104Z,97446.94
2018-12-11T00:17:55.975Z,97449.13
2018-12-11T00:20:25.031Z,97451.28
2018-12-11T00:22:54.368Z,97456.97
2018-12-11T00:25:23.175Z,97456.19
2018-12-11T00:27:51.856Z,97468.28
2018-12-11T00:30:20.913Z,97471.28
2018-12-11T00:32:49.901Z,97472.55
2018-12-11T00:35:18.927Z,97488.11
2018-12-11T00:37:47.980Z,97489.03
2018-12-11T00:40:17.042Z,97480.83
2018-12-11T00:42:45.916Z,97493.33
2018-12-11T00:45:14.928Z,97494.60
2018-12-11T00:47:43.821Z,97489.00
2018-12-11T00:50:12.940Z,97495.47
2018-12-11T00:52:41.938Z,97495.88
2018-12-11T00:55:10.811Z,97490.71
2018-12-11T00:57:39.967Z,97487.59
2018-12-11T01:00:10.267Z,97491.09
2018-12-11T01:02:39.425Z,97500.20
2018-12-11T01:05:08.504Z,97496.34
2018-12-11T01:07:37.508Z,97490.38
2018-12-11T01:10:09.802Z,97493.95
2018-12-11T01:12:38.957Z,97494.46
2018-12-11T01:15:08.271Z,97492.75
2018-12-11T01:17:37.226Z,97486.37
2018-12-11T01:20:07.016Z,97488.15
2018-12-11T01:22:35.659Z,97486.44
2018-12-11T01:25:04.794Z,97478.31
2018-12-11T01:27:33.657Z,97481.78
2018-12-11T01:30:02.851Z,97481.82
2018-12-11T01:32:32.050Z,97473.71
2018-12-11T01:35:01.205Z,97475.03
2018-12-11T01:37:30.355Z,97468.61
2018-12-11T01:39:59.508Z,97473.77
2018-12-11T01:42:28.495Z,97476.83
2018-12-11T01:44:57.319Z,97459.46
2018-12-11T01:47:26.372Z,97475.02
2018-12-11T01:49:55.172Z,97471.14
2018-12-11T01:52:24.146Z,97469.02
2018-12-11T01:54:52.912Z,97457.83
2018-12-11T01:57:21.599Z,97461.26
2018-12-11T01:59:50.576Z,97443.96
2018-12-11T02:02:19.647Z,97452.64
2018-12-11T02:04:48.786Z,97445.72
2018-12-11T02:07:17.897Z,97441.82
2018-12-11T02:09:46.784Z,97445.72
2018-12-11T02:12:15.725Z,97439.61
2018-12-11T02:14:44.784Z,97443.06
2018-12-11T02:17:13.905Z,97440.83
2018-12-11T02:19:42.845Z,97448.16
2018-12-11T02:22:11.850Z,97442.11
2018-12-11T02:24:40.786Z,97444.24
2018-12-11T02:27:09.923Z,97444.73
2018-12-11T02:29:38.648Z,97452.53
2018-12-11T02:32:07.772Z,97453.45
2018-12-11T02:34:36.618Z,97444.85
2018-12-11T02:37:05.583Z,97453.94
2018-12-11T02:39:34.516Z,97454.84
2018-12-11T02:42:03.501Z,97451.86
2018-12-11T02:44:32.607Z,97448.12
2018-12-11T02:47:01.826Z,97442.47
2018-12-11T02:49:30.864Z,97454.16
2018-12-11T02:52:00.016Z,97445.50
2018-12-11T02:54:28.966Z,97448.95
2018-12-11T02:56:58.014Z,97446.84
2018-12-11T02:59:26.888Z,97446.84
2018-12-11T03:01:55.870Z,97444.34
2018-12-11T03:04:24.745Z,97444.22
2018-12-11T03:06:53.440Z,97442.92
2018-12-11T03:09:22.503Z,97439.99
2018-12-11T03:11:51.496Z,97436.01
2018-12-11T03:14:20.525Z,97435.14
2018-12-11T03:16:49.733Z,97437.02
2018-12-11T03:19:18.933Z,97435.21
2018-12-11T03:21:47.933Z,97437.33
2018-12-11T03:24:17.131Z,97437.41
2018-12-11T03:26:46.305Z,97431.38
2018-12-11T03:29:15.548Z,97438.81
2018-12-11T03:31:44.619Z,97433.17
2018-12-11T03:34:20.018Z,97441.30
2018-12-11T03:36:49.009Z,97430.94
2018-12-11T03:39:18.098Z,97433.41
2018-12-11T03:41:47.130Z,97433.46
2018-12-11T03:44:16.050Z,97432.16
2018-12-11T03:46:44.943Z,97430.80
2018-12-11T03:49:13.815Z,97430.30
2018-12-11T03:51:42.664Z,97431.59
2018-12-11T03:54:11.765Z,97423.33
2018-12-11T03:56:40.938Z,97432.89
2018-12-11T03:59:10.055Z,97435.97
2018-12-11T04:01:38.977Z,97444.23
2018-12-11T04:04:07.711Z,97441.20
2018-12-11T04:06:36.371Z,97437.72
2018-12-11T04:09:07.212Z,97439.81
2018-12-11T04:11:36.303Z,97443.28
2018-12-11T04:14:05.254Z,97448.52
2018-12-11T04:16:34.129Z,97444.61
2018-12-11T04:19:03.091Z,97436.83
2018-12-11T04:21:32.237Z,97451.09
2018-12-11T04:24:01.387Z,97448.91
2018-12-11T04:26:30.220Z,97452.87
2018-12-11T04:28:59.372Z,97461.90
2018-12-11T04:31:28.277Z,97469.73
2018-12-11T04:33:57.427Z,97473.19
2018-12-11T04:36:26.549Z,97475.41
2018-12-11T04:38:55.612Z,97481.98
2018-12-11T04:41:24.395Z,97475.20
2018-12-11T04:43:53.534Z,97483.02
2018-12-11T04:46:22.519Z,97478.30
2018-12-11T04:48:51.390Z,97486.53
2018-12-11T04:51:20.320Z,97481.39
2018-12-11T04:53:49.287Z,97479.69
2018-12-11T04:56:18.328Z,97481.03
2018-12-11T04:58:47.212Z,97489.28
2018-12-11T05:01:16.097Z,97490.53
2018-12-11T05:03:45.091Z,97495.38
2018-12-11T05:06:14.188Z,97488.85
2018-12-11T05:08:43.269Z,97502.27
2018-12-11T05:11:12.244Z,97498.80
2018-12-11T05:13:41.166Z,97506.55
2018-12-11T05:16:10.120Z,97503.58
2018-12-11T05:18:39.027Z,97504.45
2018-12-11T05:21:08.208Z,97509.23
2018-12-11T05:23:37.136Z,97505.25
2018-12-11T05:26:06.200Z,97512.10
2018-12-11T05:28:35.232Z,97510.38
2018-12-11T05:31:04.258Z,97514.27
2018-12-11T05:33:33.033Z,97518.17
2018-12-11T05:36:01.928Z,97526.80
2018-12-11T05:38:30.761Z,97517.28
2018-12-11T05:40:59.882Z,97531.17
2018-12-11T05:43:28.916Z,97531.18
2018-12-11T05:45:57.713Z,97527.66
2018-12-11T05:48:26.677Z,97541.91
2018-12-11T05:50:55.769Z,97542.36
2018-12-11T05:53:24.838Z,97542.44
2018-12-11T05:55:53.933Z,97539.78
2018-12-11T05:58:22.873Z,97553.52
2018-12-11T06:00:51.688Z,97560.05
2018-12-11T06:03:20.625Z,97563.44
2018-12-11T06:05:49.704Z,97566.89
2018-12-11T06:08:18.819Z,97570.81
2018-12-11T06:10:47.712Z,97566.56
2018-12-11T06:13:16.776Z,97563.89
2018-12-11T06:15:45.818Z,97573.33
2018-12-11T06:18:14.760Z,97580.66
2018-12-11T06:20:43.798Z,97585.03
2018-12-11T06:23:12.806Z,97594.13
2018-12-11T06:25:41.725Z,97593.72
2018-12-11T06:28:10.668Z,97599.34
2018-12-11T06:30:39.600Z,97596.77
2018-12-11T06:33:08.560Z,97598.06
2018-12-11T06:35:37.592Z,97605.38
2018-12-11T06:38:06.549Z,97603.62
2018-12-11T06:40:35.560Z,97616.58
2018-12-11T06:43:04.504Z,97616.11
2018-12-11T06:45:33.492Z,97629.92
2018-12-11T06:48:02.354Z,97616.50
2018-12-11T06:50:31.163Z,97619.11
2018-12-11T06:53:00.395Z,97623.42
2018-12-11T06:55:29.598Z,97619.50
2018-12-11T06:57:58.727Z,97618.14
2018-12-11T07:00:27.873Z,97616.73
2018-12-11T07:02:56.836Z,97623.16
2018-12-11T07:05:25.878Z,97623.50
2018-12-11T07:07:54.647Z,97623.83
2018-12-11T07:10:23.629Z,97624.58
2018-12-11T07:12:52.679Z,97615.86
2018-12-11T07:15:21.707Z,97621.52
2018-12-11T07:17:50.584Z,97622.70
2018-12-11T07:20:19.237Z,97623.14
2018-12-11T07:22:48.116Z,97627.02
2018-12-11T07:25:17.014Z,97635.25
2018-12-11T07:27:45.899Z,97630.45
2018-12-11T07:30:15.040Z,97635.17
2018-12-11T07:32:44.071Z,97631.11
2018-12-11T07:35:13.141Z,97634.12
2018-12-11T07:37:42.004Z,97638.43
2018-12-11T07:40:10.946Z,97648.19
2018-12-11T07:42:39.987Z,97644.27
2018-12-11T07:45:08.904Z,97646.41
2018-12-11T07:47:37.767Z,97651.03
2018-12-11T07:50:06.654Z,97650.89
2018-12-11T07:52:35.752Z,97662.48
2018-12-11T07:55:04.898Z,97656.23
2018-12-11T07:57:33.855Z,97672.70
2018-12-11T08:00:03.026Z,97659.25
2018-12-11T08:02:32.146Z,97672.17
2018-12-11T08:05:01.197Z,97670.36
2018-12-11T08:07:29.978Z,97665.05
2018-12-11T08:09:58.905Z,97665.30
2018-12-11T08:12:28.095Z,97665.08
2018-12-11T08:14:57.388Z,97668.45
2018-12-11T08:17:26.374Z,97667.16
2018-12-11T08:19:55.542Z,97660.41
2018-12-11T08:22:24.324Z,97670.89
2018-12-11T08:24:53.497Z,97671.05
2018-12-11T08:27:22.545Z,97677.36
2018-12-11T08:29:51.584Z,97673.05
2018-12-11T08:32:20.642Z,97674.84
2018-12-11T08:34:49.861Z,97676.33
2018-12-11T08:37:18.815Z,97676.19
2018-12-11T08:39:47.786Z,97665.80
2018-12-11T08:42:16.845Z,97669.37
2018-12-11T08:44:51.188Z,97666.31
2018-12-11T08:47:17.212Z,97670.74
2018-12-11T08:49:45.993Z,97670.95
2018-12-11T08:52:14.782Z,97678.59
2018-12-11T08:54:43.893Z,97681.97
2018-12-11T08:57:12.832Z,97671.56
2018-12-11T08:59:41.551Z,97667.64
2018-12-11T09:02:10.231Z,97669.59
2018-12-11T09:04:39.105Z,97665.22
2018-12-11T09:07:08.030Z,97655.36
2018-12-11T09:09:36.961Z,97660.80
2018-12-11T09:12:05.824Z,97655.58
2018-12-11T09:14:34.745Z,97654.80
2018-12-11T09:17:10.015Z,97652.32
2018-12-11T09:19:34.687Z,97654.82
2018-12-11T09:22:03.788Z,97664.59
2018-12-11T09:24:32.903Z,97663.16
2018-12-11T09:27:01.953Z,97660.98
2018-12-11T09:29:30.927Z,97656.48
2018-12-11T09:31:59.953Z,97656.16
2018-12-11T09:34:28.916Z,97658.77
2018-12-11T09:36:57.968Z,97649.81
2018-12-11T09:39:27.032Z,97646.17
2018-12-11T09:41:55.878Z,97649.48
2018-12-11T09:44:24.962Z,97641.64
2018-12-11T09:46:53.953Z,97646.63
2018-12-11T09:49:22.869Z,97637.38
2018-12-11T09:51:51.849Z,97643.42
2018-12-11T09:54:21.050Z,97637.36
2018-12-11T09:56:50.049Z,97630.02
2018-12-11T09:59:23.364Z,97632.77
2018-12-11T10:01:49.896Z,97629.94
2018-12-11T10:04:18.648Z,97622.37
2018-12-11T10:06:47.639Z,97618.91
2018-12-11T10:09:16.535Z,97620.06
2018-12-11T10:11:45.738Z,97613.97
2018-12-11T10:14:14.532Z,97609.58
2018-12-11T10:16:43.301Z,97612.10
2018-12-11T10:19:12.504Z,97611.81
2018-12-11T10:21:41.590Z,97608.09
2018-12-11T10:24:10.768Z,97599.83
2018-12-11T10:26:39.554Z,97598.22
2018-12-11T10:29:08.648Z,97604.02
2018-12-11T10:31:37.727Z,97603.01
2018-12-11T10:34:06.458Z,97602.59
2018-12-11T10:36:35.344Z,97605.40
2018-12-11T10:39:05.988Z,97605.56
2018-12-11T10:41:34.966Z,97601.22
2018-12-11T10:44:03.878Z,97597.22
2018-12-11T10:46:33.908Z,97602.48
2018-12-11T10:49:03.046Z,97599.70
2018-12-11T10:51:32.213Z,97607.95
2018-12-11T10:54:01.359Z,97600.17
2018-12-11T10:56:30.636Z,97598.63
2018-12-11T10:58:59.756Z,97598.73
2018-12-11T11:01:30.704Z,97600.73
2018-12-11T11:03:59.662Z,97603.23
2018-12-11T11:06:28.573Z,97604.39
2018-12-11T11:08:57.712Z,97597.58
2018-12-11T11:11:26.551Z,97605.33
2018-12-11T11:13:55.274Z,97603.40
2018-12-11T11:16:24.642Z,97599.04
2018-12-11T11:18:54.107Z,97604.86
2018-12-11T11:21:23.010Z,97604.88
2018-12-11T11:23:52.013Z,97593.07
2018-12-11T11:26:20.963Z,97599.24
2018-12-11T11:28:50.012Z,97602.09
2018-12-11T11:31:18.780Z,97597.89
2018-12-11T11:33:47.748Z,97604.95
2018-12-11T11:36:16.837Z,97604.52
2018-12-11T11:38:45.891Z,97603.97
2018-12-11T11:41:14.915Z,97605.69
2018-12-11T11:43:43.654Z,97603.52
2018-12-11T11:46:12.570Z,97609.81
2018-12-11T11:48:41.452Z,97611.39
2018-12-11T11:51:10.560Z,97609.20
2018-12-11T11:53:39.636Z,97610.48
2018-12-11T11:56:08.763Z,97611.10
2018-12-11T11:58:37.922Z,97609.05
2018-12-11T12:01:06.872Z,97613.70
2018-12-11T12:03:35.779Z,97617.45
2018-12-11T12:06:04.784Z,97613.34
2018-12-11T12:08:33.563Z,97619.47
2018-12-11T12:11:02.365Z,97628.38
2018-12-11T12:13:31.475Z,97626.45
2018-12-11T12:16:00.216Z,97628.91
2018-12-11T12:18:29.136Z,97627.27
2018-12-11T12:20:58.484Z,97635.70
2018-12-11T12:23:27.472Z,97639.94
2018-12-11T12:25:56.448Z,97640.44
2018-12-11T12:28:25.324Z,97646.46
2018-12-11T12:30:56.152Z,97655.96
2018-12-11T12:33:25.241Z,97649.44
2018-12-11T12:35:54.280Z,97655.14
2018-12-11T12:38:22.998Z,97658.92
2018-12-11T12:40:52.067Z,97658.02
2018-12-11T12:43:20.993Z,97655.63
2018-12-11T12:45:50.143Z,97655.74
2018-12-11T12:48:18.967Z,97657.68
2018-12-11T12:50:47.868Z,97661.36
2018-12-11T12:53:16.628Z,97662.75
2018-12-11T12:55:45.687Z,97667.80
2018-12-11T12:58:14.652Z,97669.02
2018-12-11T13:00:43.682Z,97666.38
2018-12-11T13:03:12.407Z,97669.13
2018-12-11T13:05:41.365Z,97674.83
2018-12-11T13:08:10.216Z,97675.63
2018-12-11T13:10:38.968Z,97680.66
2018-12-11T13:13:09.340Z,97679.93
2018-12-11T13:15:38.739Z,97691.67
2018-12-11T13:18:07.749Z,97688.00
2018-12-11T13:20:36.606Z,97693.70
2018-12-11T13:23:05.540Z,97703.32
2018-12-11T13:25:34.572Z,97701.38
2018-12-11T13:28:03.275Z,97699.86
2018-12-11T13:30:31.979Z,97699.98
2018-12-11T13:33:00.898Z,97709.45
2018-12-11T13:35:29.800Z,97713.05
2018-12-11T13:37:58.853Z,97716.34
2018-12-11T13:40:28.107Z,97714.55
2018-12-11T13:42:57.428Z,97717.59
2018-12-11T13:45:26.276Z,97726.45
2018-12-11T13:47:55.324Z,97720.05
2018-12-11T13:50:24.438Z,97726.17
2018-12-11T13:52:53.552Z,97730.55
2018-12-11T13:55:22.668Z,97729.50
2018-12-11T13:57:51.597Z,97730.20
2018-12-11T14:00:20.564Z,97733.33
2018-12-11T14:02:49.456Z,97733.03
2018-12-11T14:05:18.744Z,97735.03
2018-12-11T14:07:47.776Z,97730.98
2018-12-11T14:10:16.823Z,97732.60
2018-12-11T14:13:00.417Z,97736.31
2018-12-11T14:15:29.298Z,97737.36
2018-12-11T14:17:58.163Z,97735.80
2018-12-11T14:20:26.998Z,97738.76
2018-12-11T14:22:56.066Z,97737.94
2018-12-11T14:25:24.895Z,97740.67
2018-12-11T14:27:53.983Z,97741.72
2018-12-11T14:30:23.112Z,97739.74
2018-12-11T14:32:51.994Z,97738.51
2018-12-11T14:35:21.102Z,97743.68
2018-12-11T14:37:50.148Z,97744.20
2018-12-11T14:40:19.183Z,97744.28
2018-12-11T14:42:48.205Z,97742.14
2018-12-11T14:45:16.883Z,97739.99
2018-12-11T14:47:45.818Z,97746.42
2018-12-11T14:50:14.866Z,97750.33
2018-12-11T14:52:44.102Z,97754.47
2018-12-11T14:55:13.166Z,97745.84
2018-12-11T14:57:42.201Z,97748.08
2018-12-11T15:00:11.628Z,97748.54
2018-12-11T15:02:40.960Z,97755.88
2018-12-11T15:05:10.499Z,97757.75
2018-12-11T15:07:39.766Z,97751.42
2018-12-11T15:10:10.820Z,97758.41
2018-12-11T15:12:39.721Z,97753.21
2018-12-11T15:15:10.396Z,97744.14
2018-12-11T15:17:39.419Z,97748.94
2018-12-11T15:20:09.345Z,97748.09
2018-12-11T15:22:38.329Z,97751.49
2018-12-11T15:25:07.457Z,97745.08
2018-12-11T15:27:36.503Z,97756.83
2018-12-11T15:30:06.014Z,97758.08
2018-12-11T15:32:34.774Z,97763.23
2018-12-11T15:35:04.232Z,97763.28
2018-12-11T15:37:33.139Z,97761.52
2018-12-11T15:40:01.798Z,97775.86
2018-12-11T15:42:30.760Z,97777.06
2018-12-11T15:44:59.812Z,97777.55
2018-12-11T15:47:28.943Z,97781.53
2018-12-11T15:49:57.952Z,97782.41
2018-12-11T15:52:26.710Z,97783.38
2018-12-11T15:54:55.660Z,97782.92
2018-12-11T15:57:24.717Z,97781.23
2018-12-11T15:59:53.655Z,97786.45
2018-12-11T16:02:22.583Z,97785.98
2018-12-11T16:04:51.490Z,97786.45
2018-12-11T16:07:20.367Z,97790.41
2018-12-11T16:09:49.399Z,97793.45
2018-12-11T16:12:18.407Z,97801.25
2018-12-11T16:14:48.187Z,97801.73
2018-12-11T16:17:17.078Z,97805.99
2018-12-11T16:19:46.175Z,97797.35
2018-12-11T16:22:15.299Z,97796.58
2018-12-11T16:24:44.197Z,97796.66
2018-12-11T16:27:13.372Z,97796.73
2018-12-11T16:29:42.304Z,97791.58
2018-12-11T16:32:11.339Z,97802.41
2018-12-11T16:34:40.314Z,97797.20
2018-12-11T16:37:10.280Z,97798.94
2018-12-11T16:39:39.457Z,97795.88
2018-12-11T16:42:08.577Z,97804.46
2018-12-11T16:44:37.628Z,97804.88
2018-12-11T16:47:06.827Z,97804.36
2018-12-11T16:49:35.916Z,97809.52
2018-12-11T16:52:04.932Z,97813.44
2018-12-11T16:54:34.164Z,97809.16
2018-12-11T16:57:03.248Z,97815.68
2018-12-11T16:59:33.735Z,97819.13
2018-12-11T17:02:02.646Z,97825.16
2018-12-11T17:04:31.659Z,97826.45
2018-12-11T17:07:00.624Z,97834.62
2018-12-11T17:09:29.772Z,97826.38
2018-12-11T17:11:58.855Z,97835.82
2018-12-11T17:14:28.378Z,97829.70
2018-12-11T17:16:57.293Z,97837.97
2018-12-11T17:19:26.103Z,97833.70
2018-12-11T17:21:55.209Z,97836.45
2018-12-11T17:24:24.271Z,97841.27
2018-12-11T17:26:53.306Z,97852.16
2018-12-11T17:29:24.411Z,97850.55
2018-12-11T17:31:53.810Z,97849.24
2018-12-11T17:34:22.836Z,97857.55
2018-12-11T17:36:52.059Z,97854.95
2018-12-11T17:39:21.298Z,97858.02
2018-12-11T17:41:50.266Z,97857.23
2018-12-11T17:44:19.290Z,97860.23
2018-12-11T17:46:48.440Z,97865.03
2018-12-11T17:49:17.512Z,97869.75
2018-12-11T17:51:46.634Z,97864.54
2018-12-11T17:54:15.704Z,97863.65
2018-12-11T17:56:44.861Z,97874.09
2018-12-11T17:59:14.152Z,97875.41
2018-12-11T18:01:44.642Z,97882.77
2018-12-11T18:04:14.555Z,97877.18
2018-12-11T18:06:44.394Z,97877.30
2018-12-11T18:09:14.445Z,97876.88
2018-12-11T18:11:43.846Z,97885.08
2018-12-11T18:14:12.928Z,97878.62
2018-12-11T18:16:41.987Z,97896.69
2018-12-11T18:19:11.160Z,97893.20
2018-12-11T18:21:40.772Z,97899.25
2018-12-11T18:24:09.578Z,97898.89
2018-12-11T18:26:38.609Z,97894.58
2018-12-11T18:29:07.715Z,97902.78
2018-12-11T18:31:36.995Z,97900.60
2018-12-11T18:34:10.937Z,97892.02
2018-12-11T18:36:37.747Z,97905.42
2018-12-11T18:39:08.759Z,97908.42
2018-12-11T18:41:38.156Z,97910.58
2018-12-11T18:44:07.115Z,97905.81
2018-12-11T18:46:35.922Z,97908.78
2018-12-11T18:49:05.198Z,97902.27
2018-12-11T18:51:35.401Z,97904.02
2018-12-11T18:54:05.502Z,97905.69
2018-12-11T18:56:34.232Z,97908.70
2018-12-11T18:59:03.440Z,97909.55
2018-12-11T19:01:32.649Z,97910.39
2018-12-11T19:04:01.806Z,97919.05
2018-12-11T19:06:31.594Z,97919.08
2018-12-11T19:09:05.699Z,97924.26
2018-12-11T19:11:31.624Z,97921.18
2018-12-11T19:14:00.545Z,97921.66
2018-12-11T19:16:29.587Z,97914.32
2018-12-11T19:18:58.598Z,97916.04
2018-12-11T19:21:27.770Z,97915.64
2018-12-11T19:24:19.915Z,97917.31
2018-12-11T19:26:49.129Z,97920.78
2018-12-11T19:29:18.190Z,97920.39
2018-12-11T19:31:46.993Z,97917.78
2018-12-11T19:34:16.253Z,97919.53
2018-12-11T19:36:45.283Z,97926.00
2018-12-11T19:39:14.331Z,97917.80
2018-12-11T19:41:43.435Z,97926.91
2018-12-11T19:44:12.328Z,97927.75
2018-12-11T19:46:42.027Z,97927.77
2018-12-11T19:49:10.979Z,97928.66
2018-12-11T19:51:39.660Z,97925.66
2018-12-11T19:54:08.605Z,97925.63
2018-12-11T19:56:38.071Z,97930.83
2018-12-11T19:59:06.980Z,97925.63
2018-12-11T20:01:35.966Z,97935.16
2018-12-11T20:04:05.595Z,97939.48
2018-12-11T20:06:34.814Z,97934.32
2018-12-11T20:09:07.241Z,97935.16
2018-12-11T20:11:36.222Z,97928.68
2018-12-11T20:14:05.351Z,97937.34
2018-12-11T20:16:34.384Z,97938.21
2018-12-11T20:19:03.593Z,97937.38
2018-12-11T20:21:32.521Z,97936.95
2018-12-11T20:24:04.888Z,97943.02
2018-12-11T20:26:36.522Z,97937.86
2018-12-11T20:29:03.500Z,97943.48
2018-12-11T20:31:32.528Z,97935.70
2018-12-11T20:34:01.541Z,97942.19
2018-12-11T20:36:30.305Z,97936.16
2018-12-11T20:39:00.288Z,97941.77
2018-12-11T20:41:29.009Z,97940.92
2018-12-11T20:43:57.866Z,97942.19
2018-12-11T20:46:27.049Z,97953.44
2018-12-11T20:48:56.112Z,97951.70
2018-12-11T20:51:25.170Z,97953.03
2018-12-11T20:53:54.247Z,97943.50
2018-12-11T20:56:23.125Z,97947.39
2018-12-11T20:58:52.068Z,97948.25
2018-12-11T21:01:21.219Z,97953.03
2018-12-11T21:03:50.039Z,97955.60
2018-12-11T21:06:19.262Z,97966.81
2018-12-11T21:08:48.269Z,97969.86
2018-12-11T21:11:17.154Z,97965.53
2018-12-11T21:13:46.237Z,97974.59
2018-12-11T21:16:15.167Z,97972.86
2018-12-11T21:18:44.571Z,97976.73
2018-12-11T21:21:13.795Z,97972.42
2018-12-11T21:23:42.634Z,97971.15
2018-12-11T21:26:11.822Z,97970.28
2018-12-11T21:28:40.853Z,97966.41
2018-12-11T21:31:09.883Z,97966.39
2018-12-11T21:33:39.038Z,97963.38
2018-12-11T21:36:07.992Z,97966.81
2018-12-11T21:38:36.889Z,97973.30
2018-12-11T21:41:05.653Z,97968.55
2018-12-11T21:43:34.440Z,97972.88
2018-12-11T21:46:03.357Z,97971.56
2018-12-11T21:48:32.411Z,97964.27
2018-12-11T21:51:01.585Z,97965.98
2018-12-11T21:53:30.537Z,97961.64
2018-12-11T21:55:59.471Z,97964.24
2018-12-11T21:58:28.560Z,97959.08
2018-12-11T22:00:57.404Z,97960.38
2018-12-11T22:03:26.906Z,97959.50
2018-12-11T22:05:55.920Z,97963.36
2018-12-11T22:08:25.189Z,97960.34
2018-12-11T22:10:54.229Z,97964.26
2018-12-11T22:13:23.282Z,97965.97
2018-12-11T22:15:52.275Z,97964.68
2018-12-11T22:18:21.246Z,97963.80
2018-12-11T22:20:50.423Z,97960.80
2018-12-11T22:23:19.497Z,97960.79
2018-12-11T22:25:48.670Z,97962.50
2018-12-11T22:28:17.807Z,97962.52
2018-12-11T22:30:46.896Z,97965.11
2018-12-11T22:33:15.930Z,97967.69
2018-12-11T22:35:44.767Z,97961.66
2018-12-11T22:38:13.861Z,97966.38
2018-12-11T22:40:42.879Z,97954.73
2018-12-11T22:43:11.790Z,97959.50
2018-12-11T22:45:40.683Z,97964.67
2018-12-11T22:48:09.648Z,97964.24
2018-12-11T22:50:38.468Z,97968.53
2018-12-11T22:53:07.235Z,97968.13
2018-12-11T22:55:36.328Z,97975.46
2018-12-11T22:58:05.496Z,97965.52
2018-12-11T23:00:34.544Z,97968.99
2018-12-11T23:03:03.688Z,97969.41
2018-12-11T23:05:32.625Z,97963.36
2018-12-11T23:08:01.565Z,97963.39
2018-12-11T23:10:30.528Z,97965.54
2018-12-11T23:12:59.291Z,97963.80
2018-12-11T23:15:28.331Z,97967.69
2018-12-11T23:17:57.478Z,97962.97
2018-12-11T23:20:26.529Z,97960.37
2018-12-11T23:22:55.216Z,97959.06
2018-12-11T23:25:24.349Z,97959.48
2018-12-11T23:27:53.109Z,97962.52
2018-12-11T23:30:22.284Z,97961.62
2018-12-11T23:32:51.344Z,97959.92
2018-12-11T23:35:20.714Z,97959.50
2018-12-11T23:37:49.633Z,97965.09
2018-12-11T23:40:18.691Z,97954.73
2018-12-11T23:42:47.764Z,97958.62
2018-12-11T23:45:16.813Z,97961.22
2018-12-11T23:47:45.845Z,97963.36
2018-12-11T23:50:14.883Z,97967.27
2018-12-11T23:52:43.953Z,97965.98
2018-12-11T23:55:12.666Z,97968.98
2018-12-11T23:57:41.368Z,97971.15
